sensor_id;sensor_type;location;lat;lon;timestamp;P1;durP1;ratioP1;P2;durP2;ratioP2
15806;SDS011;8005;51.368;6.140;2023-04-08T07:29:01;106.57;;;41.63;;
15806;SDS011;8005;51.368;6.140;2023-04-08T07:40:23;98.40;;;40.20;;
15806;SDS011;8005;51.368;6.140;2023-04-08T07:43:00;96.60;;;40.67;;
15806;SDS011;8005;51.368;6.140;2023-04-08T07:45:07;89.15;;;40.88;;
15806;SDS011;8005;51.368;6.140;2023-04-08T08:00:53;90.50;;;39.13;;
15806;SDS011;8005;51.368;6.140;2023-04-08T08:02:26;92.80;;;40.50;;
15806;SDS011;8005;51.368;6.140;2023-04-08T08:04:55;91.13;;;39.95;;
15806;SDS011;8005;51.368;6.140;2023-04-08T08:12:55;80.60;;;38.25;;
15806;SDS011;8005;51.368;6.140;2023-04-08T08:23:51;70.97;;;35.03;;
15806;SDS011;8005;51.368;6.140;2023-04-08T08:26:06;64.70;;;32.35;;
15806;SDS011;8005;51.368;6.140;2023-04-08T08:28:41;67.97;;;34.38;;
15806;SDS011;8005;51.368;6.140;2023-04-08T08:30:37;66.30;;;32.40;;
15806;SDS011;8005;51.368;6.140;2023-04-08T08:33:19;62.25;;;32.65;;
15806;SDS011;8005;51.368;6.140;2023-04-08T08:35:23;61.25;;;32.28;;
15806;SDS011;8005;51.368;6.140;2023-04-08T08:36:58;60.28;;;31.30;;
15806;SDS011;8005;51.368;6.140;2023-04-08T08:38:32;59.72;;;31.83;;
15806;SDS011;8005;51.368;6.140;2023-04-08T08:42:55;61.03;;;31.05;;
15806;SDS011;8005;51.368;6.140;2023-04-08T08:45:47;64.28;;;32.17;;
15806;SDS011;8005;51.368;6.140;2023-04-08T08:48:50;57.17;;;29.52;;
15806;SDS011;8005;51.368;6.140;2023-04-08T08:51:41;61.45;;;33.38;;
15806;SDS011;8005;51.368;6.140;2023-04-08T08:59:55;58.33;;;30.02;;
15806;SDS011;8005;51.368;6.140;2023-04-08T09:02:05;54.28;;;30.83;;
15806;SDS011;8005;51.368;6.140;2023-04-08T09:04:14;58.35;;;31.38;;
15806;SDS011;8005;51.368;6.140;2023-04-08T09:06:11;57.75;;;30.70;;
15806;SDS011;8005;51.368;6.140;2023-04-08T09:09:50;55.40;;;30.63;;
15806;SDS011;8005;51.368;6.140;2023-04-08T09:11:46;53.55;;;31.40;;
15806;SDS011;8005;51.368;6.140;2023-04-08T09:13:21;52.90;;;31.40;;
15806;SDS011;8005;51.368;6.140;2023-04-08T09:19:25;58.80;;;30.80;;
15806;SDS011;8005;51.368;6.140;2023-04-08T09:21:20;54.25;;;28.30;;
15806;SDS011;8005;51.368;6.140;2023-04-08T09:23:08;53.58;;;30.27;;
15806;SDS011;8005;51.368;6.140;2023-04-08T09:34:10;50.38;;;27.80;;
15806;SDS011;8005;51.368;6.140;2023-04-08T09:36:01;46.25;;;26.85;;
15806;SDS011;8005;51.368;6.140;2023-04-08T09:37:51;49.85;;;28.42;;
15806;SDS011;8005;51.368;6.140;2023-04-08T09:40:18;46.35;;;27.95;;
15806;SDS011;8005;51.368;6.140;2023-04-08T09:44:35;43.85;;;27.38;;
15806;SDS011;8005;51.368;6.140;2023-04-08T09:46:25;42.72;;;27.40;;
15806;SDS011;8005;51.368;6.140;2023-04-08T09:56:35;48.22;;;27.05;;
15806;SDS011;8005;51.368;6.140;2023-04-08T10:04:22;48.70;;;29.00;;
15806;SDS011;8005;51.368;6.140;2023-04-08T10:16:41;50.00;;;29.88;;
15806;SDS011;8005;51.368;6.140;2023-04-08T10:19:51;43.28;;;28.23;;
15806;SDS011;8005;51.368;6.140;2023-04-08T10:21:30;45.47;;;28.55;;
15806;SDS011;8005;51.368;6.140;2023-04-08T10:23:52;45.33;;;27.98;;
15806;SDS011;8005;51.368;6.140;2023-04-08T10:25:29;48.55;;;30.27;;
15806;SDS011;8005;51.368;6.140;2023-04-08T10:27:05;47.22;;;29.95;;
15806;SDS011;8005;51.368;6.140;2023-04-08T10:30:53;47.90;;;30.55;;
15806;SDS011;8005;51.368;6.140;2023-04-08T10:32:26;45.55;;;29.55;;
15806;SDS011;8005;51.368;6.140;2023-04-08T10:36:11;42.80;;;28.40;;
15806;SDS011;8005;51.368;6.140;2023-04-08T10:37:45;43.33;;;28.02;;
15806;SDS011;8005;51.368;6.140;2023-04-08T10:39:23;42.63;;;27.75;;
15806;SDS011;8005;51.368;6.140;2023-04-08T10:41:00;45.30;;;29.05;;
15806;SDS011;8005;51.368;6.140;2023-04-08T10:42:36;42.13;;;27.65;;
15806;SDS011;8005;51.368;6.140;2023-04-08T10:44:16;39.42;;;27.75;;
15806;SDS011;8005;51.368;6.140;2023-04-08T10:46:13;44.65;;;28.60;;
15806;SDS011;8005;51.368;6.140;2023-04-08T10:47:50;42.50;;;27.60;;
15806;SDS011;8005;51.368;6.140;2023-04-08T10:49:22;41.45;;;27.10;;
15806;SDS011;8005;51.368;6.140;2023-04-08T10:51:09;43.25;;;27.75;;
15806;SDS011;8005;51.368;6.140;2023-04-08T10:52:45;41.53;;;27.48;;
15806;SDS011;8005;51.368;6.140;2023-04-08T10:54:24;39.90;;;27.08;;
15806;SDS011;8005;51.368;6.140;2023-04-08T10:57:41;33.67;;;24.13;;
15806;SDS011;8005;51.368;6.140;2023-04-08T11:01:10;34.97;;;24.30;;
15806;SDS011;8005;51.368;6.140;2023-04-08T11:02:45;29.58;;;21.73;;
15806;SDS011;8005;51.368;6.140;2023-04-08T11:05:56;27.83;;;20.10;;
15806;SDS011;8005;51.368;6.140;2023-04-08T11:07:28;27.35;;;20.73;;
15806;SDS011;8005;51.368;6.140;2023-04-08T11:09:03;28.33;;;20.60;;
15806;SDS011;8005;51.368;6.140;2023-04-08T11:10:36;27.85;;;21.00;;
15806;SDS011;8005;51.368;6.140;2023-04-08T11:12:09;26.88;;;20.67;;
15806;SDS011;8005;51.368;6.140;2023-04-08T11:13:44;22.67;;;18.58;;
15806;SDS011;8005;51.368;6.140;2023-04-08T11:15:24;24.35;;;18.48;;
15806;SDS011;8005;51.368;6.140;2023-04-08T11:16:56;23.38;;;18.85;;
15806;SDS011;8005;51.368;6.140;2023-04-08T11:18:31;27.30;;;19.30;;
15806;SDS011;8005;51.368;6.140;2023-04-08T11:20:11;22.80;;;18.75;;
15806;SDS011;8005;51.368;6.140;2023-04-08T11:21:44;24.63;;;19.15;;
15806;SDS011;8005;51.368;6.140;2023-04-08T11:23:19;27.00;;;18.30;;
15806;SDS011;8005;51.368;6.140;2023-04-08T11:24:54;21.73;;;16.58;;
15806;SDS011;8005;51.368;6.140;2023-04-08T11:26:27;21.75;;;15.65;;
15806;SDS011;8005;51.368;6.140;2023-04-08T11:27:59;23.23;;;17.48;;
15806;SDS011;8005;51.368;6.140;2023-04-08T11:29:32;23.27;;;16.85;;
15806;SDS011;8005;51.368;6.140;2023-04-08T11:31:06;21.02;;;16.73;;
15806;SDS011;8005;51.368;6.140;2023-04-08T11:32:39;20.27;;;16.05;;
15806;SDS011;8005;51.368;6.140;2023-04-08T11:34:12;20.58;;;15.90;;
15806;SDS011;8005;51.368;6.140;2023-04-08T11:35:53;20.33;;;16.17;;
15806;SDS011;8005;51.368;6.140;2023-04-08T11:37:25;20.48;;;14.98;;
15806;SDS011;8005;51.368;6.140;2023-04-08T11:39:00;17.95;;;14.63;;
15806;SDS011;8005;51.368;6.140;2023-04-08T11:40:35;20.52;;;16.80;;
15806;SDS011;8005;51.368;6.140;2023-04-08T11:42:28;21.70;;;16.40;;
15806;SDS011;8005;51.368;6.140;2023-04-08T11:44:06;19.48;;;15.85;;
15806;SDS011;8005;51.368;6.140;2023-04-08T11:45:44;23.15;;;17.45;;
15806;SDS011;8005;51.368;6.140;2023-04-08T11:47:20;20.73;;;16.20;;
15806;SDS011;8005;51.368;6.140;2023-04-08T11:48:56;22.38;;;16.60;;
15806;SDS011;8005;51.368;6.140;2023-04-08T11:50:29;20.75;;;16.42;;
15806;SDS011;8005;51.368;6.140;2023-04-08T11:52:02;21.38;;;16.25;;
15806;SDS011;8005;51.368;6.140;2023-04-08T11:53:35;21.48;;;16.83;;
15806;SDS011;8005;51.368;6.140;2023-04-08T11:55:20;20.90;;;16.33;;
15806;SDS011;8005;51.368;6.140;2023-04-08T11:57:02;20.30;;;15.82;;
15806;SDS011;8005;51.368;6.140;2023-04-08T11:58:34;20.77;;;16.45;;
15806;SDS011;8005;51.368;6.140;2023-04-08T12:00:06;18.77;;;15.73;;
15806;SDS011;8005;51.368;6.140;2023-04-08T12:01:53;20.67;;;16.13;;
15806;SDS011;8005;51.368;6.140;2023-04-08T12:03:28;19.25;;;15.13;;
15806;SDS011;8005;51.368;6.140;2023-04-08T12:05:06;18.75;;;14.65;;
15806;SDS011;8005;51.368;6.140;2023-04-08T12:06:50;19.52;;;15.32;;
15806;SDS011;8005;51.368;6.140;2023-04-08T12:08:22;22.08;;;16.38;;
15806;SDS011;8005;51.368;6.140;2023-04-08T12:09:57;20.67;;;15.85;;
15806;SDS011;8005;51.368;6.140;2023-04-08T12:11:29;20.67;;;15.90;;
15806;SDS011;8005;51.368;6.140;2023-04-08T12:13:02;20.63;;;15.55;;
15806;SDS011;8005;51.368;6.140;2023-04-08T12:14:34;18.60;;;15.32;;
15806;SDS011;8005;51.368;6.140;2023-04-08T12:16:06;21.70;;;17.42;;
15806;SDS011;8005;51.368;6.140;2023-04-08T12:17:38;21.13;;;16.10;;
15806;SDS011;8005;51.368;6.140;2023-04-08T12:19:11;18.88;;;15.35;;
15806;SDS011;8005;51.368;6.140;2023-04-08T12:20:49;18.77;;;15.50;;
15806;SDS011;8005;51.368;6.140;2023-04-08T12:22:22;19.20;;;15.50;;
15806;SDS011;8005;51.368;6.140;2023-04-08T12:23:54;29.05;;;17.30;;
15806;SDS011;8005;51.368;6.140;2023-04-08T12:25:29;19.88;;;15.93;;
15806;SDS011;8005;51.368;6.140;2023-04-08T12:27:02;19.60;;;16.10;;
15806;SDS011;8005;51.368;6.140;2023-04-08T12:28:36;20.90;;;15.73;;
15806;SDS011;8005;51.368;6.140;2023-04-08T12:30:08;19.58;;;15.43;;
15806;SDS011;8005;51.368;6.140;2023-04-08T12:33:19;19.65;;;14.93;;
15806;SDS011;8005;51.368;6.140;2023-04-08T12:34:51;21.25;;;15.80;;
15806;SDS011;8005;51.368;6.140;2023-04-08T12:36:26;21.20;;;16.13;;
15806;SDS011;8005;51.368;6.140;2023-04-08T12:38:01;20.33;;;15.75;;
15806;SDS011;8005;51.368;6.140;2023-04-08T12:39:36;19.45;;;14.50;;
15806;SDS011;8005;51.368;6.140;2023-04-08T12:41:15;16.52;;;14.02;;
15806;SDS011;8005;51.368;6.140;2023-04-08T12:42:47;19.60;;;15.90;;
15806;SDS011;8005;51.368;6.140;2023-04-08T12:44:19;19.50;;;14.98;;
15806;SDS011;8005;51.368;6.140;2023-04-08T12:45:54;23.20;;;16.52;;
15806;SDS011;8005;51.368;6.140;2023-04-08T12:47:29;20.27;;;15.88;;
15806;SDS011;8005;51.368;6.140;2023-04-08T12:49:42;20.20;;;14.80;;
15806;SDS011;8005;51.368;6.140;2023-04-08T12:51:20;17.48;;;14.32;;
15806;SDS011;8005;51.368;6.140;2023-04-08T12:52:56;19.05;;;15.30;;
15806;SDS011;8005;51.368;6.140;2023-04-08T12:54:29;18.10;;;13.57;;
15806;SDS011;8005;51.368;6.140;2023-04-08T12:56:02;14.88;;;12.52;;
15806;SDS011;8005;51.368;6.140;2023-04-08T12:59:23;15.05;;;11.25;;
15806;SDS011;8005;51.368;6.140;2023-04-08T13:01:10;14.40;;;11.82;;
15806;SDS011;8005;51.368;6.140;2023-04-08T13:02:45;14.43;;;10.00;;
15806;SDS011;8005;51.368;6.140;2023-04-08T13:04:23;12.90;;;9.32;;
15806;SDS011;8005;51.368;6.140;2023-04-08T13:06:23;11.85;;;8.98;;
15806;SDS011;8005;51.368;6.140;2023-04-08T13:08:38;11.45;;;9.00;;
15806;SDS011;8005;51.368;6.140;2023-04-08T13:10:12;10.13;;;8.13;;
15806;SDS011;8005;51.368;6.140;2023-04-08T13:11:55;11.48;;;7.55;;
15806;SDS011;8005;51.368;6.140;2023-04-08T13:13:29;12.68;;;8.50;;
15806;SDS011;8005;51.368;6.140;2023-04-08T13:15:01;11.73;;;8.88;;
15806;SDS011;8005;51.368;6.140;2023-04-08T13:16:37;11.95;;;8.63;;
15806;SDS011;8005;51.368;6.140;2023-04-08T13:18:12;12.05;;;8.90;;
15806;SDS011;8005;51.368;6.140;2023-04-08T13:21:19;13.68;;;9.48;;
15806;SDS011;8005;51.368;6.140;2023-04-08T13:22:52;16.73;;;9.18;;
15806;SDS011;8005;51.368;6.140;2023-04-08T13:24:24;11.20;;;8.88;;
15806;SDS011;8005;51.368;6.140;2023-04-08T13:25:56;13.05;;;9.88;;
15806;SDS011;8005;51.368;6.140;2023-04-08T13:27:28;12.55;;;8.57;;
15806;SDS011;8005;51.368;6.140;2023-04-08T13:29:00;11.70;;;8.70;;
15806;SDS011;8005;51.368;6.140;2023-04-08T13:30:32;11.73;;;9.00;;
15806;SDS011;8005;51.368;6.140;2023-04-08T13:32:05;14.77;;;10.45;;
15806;SDS011;8005;51.368;6.140;2023-04-08T13:33:40;12.50;;;9.20;;
15806;SDS011;8005;51.368;6.140;2023-04-08T13:35:15;12.88;;;9.45;;
15806;SDS011;8005;51.368;6.140;2023-04-08T13:36:50;12.25;;;9.73;;
15806;SDS011;8005;51.368;6.140;2023-04-08T13:38:22;10.75;;;9.07;;
15806;SDS011;8005;51.368;6.140;2023-04-08T13:39:57;12.73;;;9.82;;
15806;SDS011;8005;51.368;6.140;2023-04-08T13:41:29;12.80;;;9.40;;
15806;SDS011;8005;51.368;6.140;2023-04-08T13:43:01;15.77;;;10.00;;
15806;SDS011;8005;51.368;6.140;2023-04-08T13:44:34;12.88;;;8.88;;
15806;SDS011;8005;51.368;6.140;2023-04-08T13:46:06;11.88;;;9.80;;
15806;SDS011;8005;51.368;6.140;2023-04-08T13:47:38;15.88;;;9.73;;
15806;SDS011;8005;51.368;6.140;2023-04-08T13:49:18;11.50;;;9.30;;
15806;SDS011;8005;51.368;6.140;2023-04-08T13:50:53;13.80;;;9.80;;
15806;SDS011;8005;51.368;6.140;2023-04-08T13:52:28;12.63;;;9.80;;
15806;SDS011;8005;51.368;6.140;2023-04-08T13:54:00;13.57;;;9.52;;
15806;SDS011;8005;51.368;6.140;2023-04-08T13:55:33;11.18;;;8.48;;
15806;SDS011;8005;51.368;6.140;2023-04-08T13:57:08;11.70;;;9.32;;
15806;SDS011;8005;51.368;6.140;2023-04-08T13:58:40;11.55;;;8.77;;
15806;SDS011;8005;51.368;6.140;2023-04-08T14:00:18;10.32;;;8.60;;
15806;SDS011;8005;51.368;6.140;2023-04-08T14:01:51;11.93;;;9.18;;
15806;SDS011;8005;51.368;6.140;2023-04-08T14:03:28;12.82;;;8.30;;
15806;SDS011;8005;51.368;6.140;2023-04-08T14:05:01;16.17;;;8.95;;
15806;SDS011;8005;51.368;6.140;2023-04-08T14:06:33;12.43;;;8.68;;
15806;SDS011;8005;51.368;6.140;2023-04-08T14:08:06;13.48;;;9.27;;
15806;SDS011;8005;51.368;6.140;2023-04-08T14:09:38;36.05;;;28.63;;
15806;SDS011;8005;51.368;6.140;2023-04-08T14:11:11;21.42;;;17.75;;
15806;SDS011;8005;51.368;6.140;2023-04-08T14:12:43;15.73;;;14.10;;
15806;SDS011;8005;51.368;6.140;2023-04-08T14:14:18;15.75;;;14.13;;
15806;SDS011;8005;51.368;6.140;2023-04-08T14:15:50;13.95;;;11.27;;
15806;SDS011;8005;51.368;6.140;2023-04-08T14:17:24;11.60;;;9.40;;
15806;SDS011;8005;51.368;6.140;2023-04-08T14:18:56;13.45;;;11.57;;
15806;SDS011;8005;51.368;6.140;2023-04-08T14:20:46;13.02;;;9.43;;
15806;SDS011;8005;51.368;6.140;2023-04-08T14:22:18;12.52;;;10.10;;
15806;SDS011;8005;51.368;6.140;2023-04-08T14:23:51;12.10;;;9.23;;
15806;SDS011;8005;51.368;6.140;2023-04-08T14:27:03;12.18;;;10.90;;
15806;SDS011;8005;51.368;6.140;2023-04-08T14:28:35;12.25;;;10.05;;
15806;SDS011;8005;51.368;6.140;2023-04-08T14:30:08;11.75;;;10.20;;
15806;SDS011;8005;51.368;6.140;2023-04-08T14:31:40;13.80;;;9.40;;
15806;SDS011;8005;51.368;6.140;2023-04-08T14:33:15;17.65;;;15.35;;
15806;SDS011;8005;51.368;6.140;2023-04-08T14:34:47;16.90;;;12.52;;
15806;SDS011;8005;51.368;6.140;2023-04-08T14:36:19;13.18;;;9.38;;
15806;SDS011;8005;51.368;6.140;2023-04-08T14:37:52;13.70;;;9.93;;
15806;SDS011;8005;51.368;6.140;2023-04-08T14:39:24;12.13;;;10.43;;
15806;SDS011;8005;51.368;6.140;2023-04-08T14:41:00;11.98;;;9.07;;
15806;SDS011;8005;51.368;6.140;2023-04-08T14:42:33;10.85;;;8.45;;
15806;SDS011;8005;51.368;6.140;2023-04-08T14:44:05;12.70;;;8.38;;
15806;SDS011;8005;51.368;6.140;2023-04-08T14:45:37;11.15;;;7.90;;
15806;SDS011;8005;51.368;6.140;2023-04-08T14:47:32;9.68;;;7.47;;
15806;SDS011;8005;51.368;6.140;2023-04-08T14:49:07;14.63;;;8.50;;
15806;SDS011;8005;51.368;6.140;2023-04-08T14:50:39;14.55;;;10.13;;
15806;SDS011;8005;51.368;6.140;2023-04-08T14:52:12;15.85;;;11.25;;
15806;SDS011;8005;51.368;6.140;2023-04-08T14:53:44;12.82;;;9.25;;
15806;SDS011;8005;51.368;6.140;2023-04-08T14:55:16;10.93;;;8.52;;
15806;SDS011;8005;51.368;6.140;2023-04-08T14:56:48;10.32;;;8.40;;
15806;SDS011;8005;51.368;6.140;2023-04-08T14:58:23;11.80;;;8.65;;
15806;SDS011;8005;51.368;6.140;2023-04-08T15:00:06;11.20;;;9.35;;
15806;SDS011;8005;51.368;6.140;2023-04-08T15:01:39;12.45;;;8.43;;
15806;SDS011;8005;51.368;6.140;2023-04-08T15:07:53;15.27;;;8.93;;
15806;SDS011;8005;51.368;6.140;2023-04-08T15:09:53;10.68;;;8.82;;
15806;SDS011;8005;51.368;6.140;2023-04-08T15:11:35;11.90;;;8.75;;
15806;SDS011;8005;51.368;6.140;2023-04-08T15:13:07;9.65;;;7.85;;
15806;SDS011;8005;51.368;6.140;2023-04-08T15:14:49;10.80;;;8.60;;
15806;SDS011;8005;51.368;6.140;2023-04-08T15:16:24;11.48;;;8.55;;
15806;SDS011;8005;51.368;6.140;2023-04-08T15:18:04;11.63;;;9.40;;
15806;SDS011;8005;51.368;6.140;2023-04-08T15:19:39;10.55;;;8.10;;
15806;SDS011;8005;51.368;6.140;2023-04-08T15:21:11;11.98;;;8.25;;
15806;SDS011;8005;51.368;6.140;2023-04-08T15:22:54;13.43;;;8.73;;
15806;SDS011;8005;51.368;6.140;2023-04-08T15:24:38;11.02;;;8.55;;
15806;SDS011;8005;51.368;6.140;2023-04-08T15:26:18;10.18;;;8.30;;
15806;SDS011;8005;51.368;6.140;2023-04-08T15:27:56;14.70;;;9.27;;
15806;SDS011;8005;51.368;6.140;2023-04-08T15:29:28;11.95;;;9.23;;
15806;SDS011;8005;51.368;6.140;2023-04-08T15:31:06;12.38;;;9.25;;
15806;SDS011;8005;51.368;6.140;2023-04-08T15:32:38;11.13;;;8.93;;
15806;SDS011;8005;51.368;6.140;2023-04-08T15:34:12;11.70;;;8.52;;
15806;SDS011;8005;51.368;6.140;2023-04-08T15:35:45;12.13;;;8.82;;
15806;SDS011;8005;51.368;6.140;2023-04-08T15:37:19;12.18;;;9.35;;
15806;SDS011;8005;51.368;6.140;2023-04-08T15:38:54;11.82;;;8.70;;
15806;SDS011;8005;51.368;6.140;2023-04-08T15:40:30;10.70;;;8.82;;
15806;SDS011;8005;51.368;6.140;2023-04-08T15:42:19;11.82;;;10.05;;
15806;SDS011;8005;51.368;6.140;2023-04-08T15:46:36;11.20;;;9.60;;
15806;SDS011;8005;51.368;6.140;2023-04-08T15:48:18;14.63;;;10.18;;
15806;SDS011;8005;51.368;6.140;2023-04-08T15:50:21;13.10;;;9.70;;
15806;SDS011;8005;51.368;6.140;2023-04-08T15:52:13;14.55;;;10.23;;
15806;SDS011;8005;51.368;6.140;2023-04-08T15:53:47;13.18;;;9.70;;
15806;SDS011;8005;51.368;6.140;2023-04-08T15:55:23;12.85;;;10.63;;
15806;SDS011;8005;51.368;6.140;2023-04-08T15:57:10;14.15;;;9.82;;
15806;SDS011;8005;51.368;6.140;2023-04-08T15:58:46;12.95;;;10.40;;
15806;SDS011;8005;51.368;6.140;2023-04-08T16:00:20;12.27;;;9.82;;
15806;SDS011;8005;51.368;6.140;2023-04-08T16:01:52;11.35;;;9.07;;
15806;SDS011;8005;51.368;6.140;2023-04-08T16:03:25;12.52;;;9.45;;
15806;SDS011;8005;51.368;6.140;2023-04-08T16:05:05;15.93;;;10.70;;
15806;SDS011;8005;51.368;6.140;2023-04-08T16:06:50;12.05;;;9.75;;
15806;SDS011;8005;51.368;6.140;2023-04-08T16:08:28;15.73;;;9.48;;
15806;SDS011;8005;51.368;6.140;2023-04-08T16:11:42;12.60;;;9.93;;
15806;SDS011;8005;51.368;6.140;2023-04-08T16:13:18;13.20;;;9.70;;
15806;SDS011;8005;51.368;6.140;2023-04-08T16:14:50;12.52;;;10.02;;
15806;SDS011;8005;51.368;6.140;2023-04-08T16:16:24;16.13;;;10.52;;
15806;SDS011;8005;51.368;6.140;2023-04-08T16:17:57;12.73;;;9.27;;
15806;SDS011;8005;51.368;6.140;2023-04-08T16:19:36;13.65;;;9.25;;
15806;SDS011;8005;51.368;6.140;2023-04-08T16:21:15;14.48;;;9.98;;
15806;SDS011;8005;51.368;6.140;2023-04-08T16:25:16;12.25;;;8.68;;
15806;SDS011;8005;51.368;6.140;2023-04-08T16:26:50;13.32;;;9.65;;
15806;SDS011;8005;51.368;6.140;2023-04-08T16:28:22;11.80;;;10.10;;
15806;SDS011;8005;51.368;6.140;2023-04-08T16:29:59;13.02;;;10.13;;
15806;SDS011;8005;51.368;6.140;2023-04-08T16:31:35;11.57;;;8.80;;
15806;SDS011;8005;51.368;6.140;2023-04-08T16:33:21;11.73;;;8.98;;
15806;SDS011;8005;51.368;6.140;2023-04-08T16:35:04;12.38;;;8.93;;
15806;SDS011;8005;51.368;6.140;2023-04-08T16:36:37;13.20;;;8.95;;
15806;SDS011;8005;51.368;6.140;2023-04-08T16:38:10;12.25;;;9.68;;
15806;SDS011;8005;51.368;6.140;2023-04-08T16:39:43;11.93;;;8.93;;
15806;SDS011;8005;51.368;6.140;2023-04-08T16:41:19;12.55;;;9.30;;
15806;SDS011;8005;51.368;6.140;2023-04-08T16:42:55;12.63;;;9.43;;
15806;SDS011;8005;51.368;6.140;2023-04-08T16:44:29;12.40;;;9.27;;
15806;SDS011;8005;51.368;6.140;2023-04-08T16:46:16;16.33;;;9.52;;
15806;SDS011;8005;51.368;6.140;2023-04-08T16:47:49;12.18;;;8.88;;
15806;SDS011;8005;51.368;6.140;2023-04-08T16:49:24;14.68;;;9.95;;
15806;SDS011;8005;51.368;6.140;2023-04-08T16:50:58;14.15;;;9.55;;
15806;SDS011;8005;51.368;6.140;2023-04-08T16:52:31;13.15;;;9.15;;
15806;SDS011;8005;51.368;6.140;2023-04-08T16:54:03;12.32;;;9.13;;
15806;SDS011;8005;51.368;6.140;2023-04-08T16:55:35;13.68;;;9.57;;
15806;SDS011;8005;51.368;6.140;2023-04-08T16:59:26;15.38;;;9.75;;
15806;SDS011;8005;51.368;6.140;2023-04-08T17:00:59;14.23;;;10.43;;
15806;SDS011;8005;51.368;6.140;2023-04-08T17:02:40;17.20;;;11.13;;
15806;SDS011;8005;51.368;6.140;2023-04-08T17:04:12;13.80;;;10.90;;
15806;SDS011;8005;51.368;6.140;2023-04-08T17:05:52;15.85;;;11.63;;
15806;SDS011;8005;51.368;6.140;2023-04-08T17:07:28;16.13;;;10.40;;
15806;SDS011;8005;51.368;6.140;2023-04-08T17:09:03;14.10;;;10.43;;
15806;SDS011;8005;51.368;6.140;2023-04-08T17:10:39;13.43;;;10.18;;
15806;SDS011;8005;51.368;6.140;2023-04-08T17:12:28;15.95;;;11.25;;
15806;SDS011;8005;51.368;6.140;2023-04-08T17:14:00;17.65;;;11.63;;
15806;SDS011;8005;51.368;6.140;2023-04-08T17:15:34;16.67;;;11.48;;
15806;SDS011;8005;51.368;6.140;2023-04-08T17:17:16;20.58;;;11.70;;
15806;SDS011;8005;51.368;6.140;2023-04-08T17:18:48;15.95;;;12.73;;
15806;SDS011;8005;51.368;6.140;2023-04-08T17:21:14;16.45;;;12.25;;
15806;SDS011;8005;51.368;6.140;2023-04-08T17:23:03;19.60;;;13.25;;
15806;SDS011;8005;51.368;6.140;2023-04-08T17:24:36;17.55;;;12.75;;
15806;SDS011;8005;51.368;6.140;2023-04-08T17:26:09;16.65;;;11.88;;
15806;SDS011;8005;51.368;6.140;2023-04-08T17:27:43;17.85;;;12.63;;
15806;SDS011;8005;51.368;6.140;2023-04-08T17:29:22;19.63;;;12.85;;
15806;SDS011;8005;51.368;6.140;2023-04-08T17:31:01;16.60;;;12.45;;
15806;SDS011;8005;51.368;6.140;2023-04-08T17:32:37;21.40;;;13.68;;
15806;SDS011;8005;51.368;6.140;2023-04-08T17:34:51;16.38;;;12.68;;
15806;SDS011;8005;51.368;6.140;2023-04-08T17:36:23;24.90;;;13.68;;
15806;SDS011;8005;51.368;6.140;2023-04-08T17:38:22;19.90;;;12.45;;
15806;SDS011;8005;51.368;6.140;2023-04-08T17:40:37;16.83;;;11.75;;
15806;SDS011;8005;51.368;6.140;2023-04-08T17:49:26;22.95;;;14.98;;
15806;SDS011;8005;51.368;6.140;2023-04-08T17:51:02;21.23;;;14.02;;
15806;SDS011;8005;51.368;6.140;2023-04-08T17:52:35;22.55;;;14.60;;
15806;SDS011;8005;51.368;6.140;2023-04-08T17:56:49;31.10;;;16.55;;
15806;SDS011;8005;51.368;6.140;2023-04-08T17:58:52;73.03;;;20.35;;
15806;SDS011;8005;51.368;6.140;2023-04-08T18:00:49;55.65;;;20.65;;
15806;SDS011;8005;51.368;6.140;2023-04-08T18:03:00;44.90;;;24.23;;
15806;SDS011;8005;51.368;6.140;2023-04-08T18:04:35;92.65;;;28.50;;
15806;SDS011;8005;51.368;6.140;2023-04-08T18:06:11;43.42;;;26.23;;
15806;SDS011;8005;51.368;6.140;2023-04-08T18:07:52;48.40;;;26.00;;
15806;SDS011;8005;51.368;6.140;2023-04-08T18:09:27;43.47;;;25.27;;
15806;SDS011;8005;51.368;6.140;2023-04-08T18:11:08;42.00;;;26.08;;
15806;SDS011;8005;51.368;6.140;2023-04-08T18:12:41;51.28;;;27.50;;
15806;SDS011;8005;51.368;6.140;2023-04-08T18:14:17;44.75;;;27.38;;
15806;SDS011;8005;51.368;6.140;2023-04-08T18:15:52;46.10;;;27.55;;
15806;SDS011;8005;51.368;6.140;2023-04-08T18:17:31;43.08;;;26.35;;
15806;SDS011;8005;51.368;6.140;2023-04-08T18:19:20;45.22;;;27.10;;
15806;SDS011;8005;51.368;6.140;2023-04-08T18:21:07;43.30;;;26.67;;
15806;SDS011;8005;51.368;6.140;2023-04-08T18:22:54;44.45;;;26.70;;
15806;SDS011;8005;51.368;6.140;2023-04-08T18:24:31;42.67;;;25.25;;
15806;SDS011;8005;51.368;6.140;2023-04-08T18:26:11;43.88;;;27.42;;
15806;SDS011;8005;51.368;6.140;2023-04-08T18:29:33;47.95;;;28.35;;
15806;SDS011;8005;51.368;6.140;2023-04-08T18:36:11;47.33;;;27.27;;
15806;SDS011;8005;51.368;6.140;2023-04-08T18:37:47;43.47;;;26.98;;
15806;SDS011;8005;51.368;6.140;2023-04-08T18:40:33;44.63;;;26.42;;
15806;SDS011;8005;51.368;6.140;2023-04-08T18:47:31;48.53;;;27.65;;
15806;SDS011;8005;51.368;6.140;2023-04-08T18:50:10;41.90;;;26.65;;
15806;SDS011;8005;51.368;6.140;2023-04-08T18:52:40;38.92;;;24.45;;
15806;SDS011;8005;51.368;6.140;2023-04-08T18:54:51;43.92;;;25.88;;
15806;SDS011;8005;51.368;6.140;2023-04-08T18:56:48;45.80;;;27.88;;
15806;SDS011;8005;51.368;6.140;2023-04-08T18:58:31;52.35;;;29.52;;
15806;SDS011;8005;51.368;6.140;2023-04-08T19:00:29;43.90;;;27.20;;
15806;SDS011;8005;51.368;6.140;2023-04-08T19:02:25;42.42;;;25.98;;
15806;SDS011;8005;51.368;6.140;2023-04-08T19:04:10;44.55;;;26.85;;
15806;SDS011;8005;51.368;6.140;2023-04-08T19:08:51;39.10;;;24.30;;
15806;SDS011;8005;51.368;6.140;2023-04-08T19:11:17;38.15;;;23.90;;
15806;SDS011;8005;51.368;6.140;2023-04-08T19:13:27;39.45;;;25.08;;
15806;SDS011;8005;51.368;6.140;2023-04-08T19:15:14;42.63;;;25.45;;
15806;SDS011;8005;51.368;6.140;2023-04-08T19:17:05;38.85;;;24.35;;
15806;SDS011;8005;51.368;6.140;2023-04-08T19:19:04;46.10;;;30.02;;
15806;SDS011;8005;51.368;6.140;2023-04-08T19:20:56;47.28;;;30.98;;
15806;SDS011;8005;51.368;6.140;2023-04-08T19:36:52;52.75;;;32.83;;
15806;SDS011;8005;51.368;6.140;2023-04-08T19:38:34;48.50;;;32.25;;
15806;SDS011;8005;51.368;6.140;2023-04-08T19:40:46;55.00;;;33.10;;
15806;SDS011;8005;51.368;6.140;2023-04-08T19:42:42;50.80;;;30.83;;
15806;SDS011;8005;51.368;6.140;2023-04-08T19:44:24;50.60;;;30.95;;
15806;SDS011;8005;51.368;6.140;2023-04-08T19:46:20;54.58;;;33.97;;
15806;SDS011;8005;51.368;6.140;2023-04-08T19:47:59;55.05;;;33.72;;
15806;SDS011;8005;51.368;6.140;2023-04-08T19:57:11;54.22;;;34.67;;
15806;SDS011;8005;51.368;6.140;2023-04-08T19:59:53;59.13;;;36.53;;
15806;SDS011;8005;51.368;6.140;2023-04-08T20:01:28;61.05;;;37.30;;
15806;SDS011;8005;51.368;6.140;2023-04-08T20:03:16;59.45;;;38.30;;
15806;SDS011;8005;51.368;6.140;2023-04-08T20:04:59;57.97;;;36.63;;
15806;SDS011;8005;51.368;6.140;2023-04-08T20:06:47;58.10;;;36.50;;
15806;SDS011;8005;51.368;6.140;2023-04-08T20:08:35;57.40;;;37.30;;
15806;SDS011;8005;51.368;6.140;2023-04-08T20:10:50;56.10;;;37.75;;
15806;SDS011;8005;51.368;6.140;2023-04-08T20:13:11;56.30;;;36.38;;
15806;SDS011;8005;51.368;6.140;2023-04-08T20:15:17;60.45;;;38.13;;
15806;SDS011;8005;51.368;6.140;2023-04-08T20:18:54;60.00;;;37.53;;
15806;SDS011;8005;51.368;6.140;2023-04-08T20:20:42;58.03;;;36.60;;
15806;SDS011;8005;51.368;6.140;2023-04-08T20:22:16;51.47;;;34.20;;
15806;SDS011;8005;51.368;6.140;2023-04-08T20:25:46;60.22;;;36.63;;
15806;SDS011;8005;51.368;6.140;2023-04-08T21:07:03;56.42;;;38.33;;
15806;SDS011;8005;51.368;6.140;2023-04-08T21:30:29;61.60;;;39.75;;